sensor_id;sensor_type;location;lat;lon;timestamp;P1;durP1;ratioP1;P2;durP2;ratioP2
35326;SDS011;21436;52.348;20.928;2022-12-18T00:01:21;47.47;;;17.95;;
35326;SDS011;21436;52.348;20.928;2022-12-18T00:03:50;42.75;;;15.25;;
35326;SDS011;21436;52.348;20.928;2022-12-18T00:06:20;44.97;;;17.45;;
35326;SDS011;21436;52.348;20.928;2022-12-18T00:08:48;54.90;;;18.73;;
35326;SDS011;21436;52.348;20.928;2022-12-18T00:11:17;51.92;;;18.45;;
35326;SDS011;21436;52.348;20.928;2022-12-18T00:13:45;47.95;;;18.38;;
35326;SDS011;21436;52.348;20.928;2022-12-18T00:16:14;53.00;;;18.38;;
35326;SDS011;21436;52.348;20.928;2022-12-18T00:18:43;42.67;;;16.33;;
35326;SDS011;21436;52.348;20.928;2022-12-18T00:21:11;45.30;;;16.65;;
35326;SDS011;21436;52.348;20.928;2022-12-18T00:23:40;45.28;;;17.45;;
35326;SDS011;21436;52.348;20.928;2022-12-18T00:26:13;47.40;;;18.02;;
35326;SDS011;21436;52.348;20.928;2022-12-18T00:28:51;40.95;;;15.95;;
35326;SDS011;21436;52.348;20.928;2022-12-18T00:31:20;46.35;;;17.30;;
35326;SDS011;21436;52.348;20.928;2022-12-18T00:33:51;43.35;;;16.95;;
35326;SDS011;21436;52.348;20.928;2022-12-18T00:36:23;44.25;;;16.65;;
35326;SDS011;21436;52.348;20.928;2022-12-18T00:38:53;41.60;;;15.75;;
35326;SDS011;21436;52.348;20.928;2022-12-18T00:41:22;48.30;;;17.23;;
35326;SDS011;21436;52.348;20.928;2022-12-18T00:44:09;56.35;;;18.88;;
35326;SDS011;21436;52.348;20.928;2022-12-18T00:46:39;50.25;;;17.98;;
35326;SDS011;21436;52.348;20.928;2022-12-18T00:49:07;48.67;;;17.55;;
35326;SDS011;21436;52.348;20.928;2022-12-18T00:51:35;47.72;;;16.63;;
35326;SDS011;21436;52.348;20.928;2022-12-18T00:54:03;50.53;;;19.20;;
35326;SDS011;21436;52.348;20.928;2022-12-18T00:56:30;41.65;;;15.50;;
35326;SDS011;21436;52.348;20.928;2022-12-18T00:58:58;39.58;;;16.38;;
35326;SDS011;21436;52.348;20.928;2022-12-18T01:01:26;41.25;;;16.52;;
35326;SDS011;21436;52.348;20.928;2022-12-18T01:03:57;40.03;;;13.70;;
35326;SDS011;21436;52.348;20.928;2022-12-18T01:06:24;48.05;;;15.60;;
35326;SDS011;21436;52.348;20.928;2022-12-18T01:08:52;42.15;;;17.75;;
35326;SDS011;21436;52.348;20.928;2022-12-18T01:11:20;46.78;;;16.83;;
35326;SDS011;21436;52.348;20.928;2022-12-18T01:13:48;46.85;;;16.40;;
35326;SDS011;21436;52.348;20.928;2022-12-18T01:16:16;47.25;;;17.70;;
35326;SDS011;21436;52.348;20.928;2022-12-18T01:18:44;47.33;;;17.08;;
35326;SDS011;21436;52.348;20.928;2022-12-18T01:21:14;45.50;;;17.50;;
35326;SDS011;21436;52.348;20.928;2022-12-18T01:23:42;42.58;;;17.20;;
35326;SDS011;21436;52.348;20.928;2022-12-18T01:26:12;46.92;;;17.25;;
35326;SDS011;21436;52.348;20.928;2022-12-18T01:28:43;41.65;;;15.68;;
35326;SDS011;21436;52.348;20.928;2022-12-18T01:33:38;43.35;;;16.60;;
35326;SDS011;21436;52.348;20.928;2022-12-18T01:36:07;44.03;;;16.33;;
35326;SDS011;21436;52.348;20.928;2022-12-18T01:38:35;48.13;;;14.50;;
35326;SDS011;21436;52.348;20.928;2022-12-18T01:41:02;36.80;;;13.55;;
35326;SDS011;21436;52.348;20.928;2022-12-18T01:46:25;46.03;;;13.95;;
35326;SDS011;21436;52.348;20.928;2022-12-18T01:48:57;39.88;;;15.88;;
35326;SDS011;21436;52.348;20.928;2022-12-18T01:51:27;37.05;;;14.98;;
35326;SDS011;21436;52.348;20.928;2022-12-18T01:53:57;42.25;;;14.65;;
35326;SDS011;21436;52.348;20.928;2022-12-18T01:56:25;38.67;;;15.35;;
35326;SDS011;21436;52.348;20.928;2022-12-18T01:58:54;45.47;;;14.15;;
35326;SDS011;21436;52.348;20.928;2022-12-18T02:01:32;41.13;;;15.13;;
35326;SDS011;21436;52.348;20.928;2022-12-18T02:12:22;33.13;;;11.75;;
35326;SDS011;21436;52.348;20.928;2022-12-18T02:14:55;41.10;;;14.00;;
35326;SDS011;21436;52.348;20.928;2022-12-18T02:20:13;35.90;;;12.57;;
35326;SDS011;21436;52.348;20.928;2022-12-18T02:22:53;30.67;;;11.00;;
35326;SDS011;21436;52.348;20.928;2022-12-18T02:28:30;21.85;;;8.93;;
35326;SDS011;21436;52.348;20.928;2022-12-18T02:31:02;43.65;;;14.82;;
35326;SDS011;21436;52.348;20.928;2022-12-18T02:33:32;23.92;;;10.18;;
35326;SDS011;21436;52.348;20.928;2022-12-18T02:36:00;36.85;;;12.57;;
35326;SDS011;21436;52.348;20.928;2022-12-18T02:38:31;46.60;;;14.32;;
35326;SDS011;21436;52.348;20.928;2022-12-18T02:41:05;41.80;;;13.45;;
35326;SDS011;21436;52.348;20.928;2022-12-18T02:43:35;38.42;;;12.02;;
35326;SDS011;21436;52.348;20.928;2022-12-18T02:48:57;61.30;;;24.37;;
35326;SDS011;21436;52.348;20.928;2022-12-18T02:51:40;39.30;;;15.95;;
35326;SDS011;21436;52.348;20.928;2022-12-18T02:54:20;53.15;;;19.90;;
35326;SDS011;21436;52.348;20.928;2022-12-18T02:56:52;26.63;;;10.02;;
35326;SDS011;21436;52.348;20.928;2022-12-18T02:59:25;43.03;;;16.25;;
35326;SDS011;21436;52.348;20.928;2022-12-18T03:02:03;40.05;;;13.38;;
35326;SDS011;21436;52.348;20.928;2022-12-18T03:04:43;32.85;;;11.52;;
35326;SDS011;21436;52.348;20.928;2022-12-18T03:07:38;29.85;;;12.18;;
35326;SDS011;21436;52.348;20.928;2022-12-18T03:10:11;53.78;;;21.63;;
35326;SDS011;21436;52.348;20.928;2022-12-18T03:12:43;31.85;;;11.80;;
35326;SDS011;21436;52.348;20.928;2022-12-18T03:15:17;31.20;;;12.50;;
35326;SDS011;21436;52.348;20.928;2022-12-18T03:17:56;28.70;;;9.82;;
35326;SDS011;21436;52.348;20.928;2022-12-18T03:20:29;37.47;;;13.05;;
35326;SDS011;21436;52.348;20.928;2022-12-18T03:22:59;38.45;;;13.23;;
35326;SDS011;21436;52.348;20.928;2022-12-18T03:25:31;27.30;;;11.05;;
35326;SDS011;21436;52.348;20.928;2022-12-18T03:27:59;31.88;;;11.25;;
35326;SDS011;21436;52.348;20.928;2022-12-18T03:30:30;39.05;;;13.98;;
35326;SDS011;21436;52.348;20.928;2022-12-18T03:33:07;29.15;;;11.65;;
35326;SDS011;21436;52.348;20.928;2022-12-18T03:35:39;35.72;;;12.05;;
35326;SDS011;21436;52.348;20.928;2022-12-18T03:38:07;22.63;;;7.75;;
35326;SDS011;21436;52.348;20.928;2022-12-18T03:43:29;37.70;;;13.57;;
35326;SDS011;21436;52.348;20.928;2022-12-18T03:46:12;37.92;;;12.82;;
35326;SDS011;21436;52.348;20.928;2022-12-18T03:48:46;23.75;;;8.32;;
35326;SDS011;21436;52.348;20.928;2022-12-18T03:51:25;31.75;;;11.05;;
35326;SDS011;21436;52.348;20.928;2022-12-18T03:54:00;34.33;;;11.00;;
35326;SDS011;21436;52.348;20.928;2022-12-18T03:56:42;35.63;;;12.18;;
35326;SDS011;21436;52.348;20.928;2022-12-18T03:59:13;30.17;;;10.95;;
35326;SDS011;21436;52.348;20.928;2022-12-18T04:01:45;34.17;;;11.23;;
35326;SDS011;21436;52.348;20.928;2022-12-18T04:04:15;30.42;;;11.63;;
35326;SDS011;21436;52.348;20.928;2022-12-18T04:06:45;30.35;;;10.60;;
35326;SDS011;21436;52.348;20.928;2022-12-18T04:09:14;37.85;;;13.00;;
35326;SDS011;21436;52.348;20.928;2022-12-18T04:11:46;32.17;;;11.88;;
35326;SDS011;21436;52.348;20.928;2022-12-18T04:14:15;35.83;;;12.38;;
35326;SDS011;21436;52.348;20.928;2022-12-18T04:16:48;35.08;;;11.75;;
35326;SDS011;21436;52.348;20.928;2022-12-18T04:19:18;34.50;;;12.52;;
35326;SDS011;21436;52.348;20.928;2022-12-18T04:21:49;37.45;;;12.02;;
35326;SDS011;21436;52.348;20.928;2022-12-18T04:24:17;28.55;;;11.30;;
35326;SDS011;21436;52.348;20.928;2022-12-18T04:26:54;33.28;;;11.48;;
35326;SDS011;21436;52.348;20.928;2022-12-18T04:29:24;30.42;;;10.90;;
35326;SDS011;21436;52.348;20.928;2022-12-18T04:31:52;29.52;;;11.65;;
35326;SDS011;21436;52.348;20.928;2022-12-18T04:34:20;33.58;;;11.00;;
35326;SDS011;21436;52.348;20.928;2022-12-18T04:36:51;36.10;;;11.75;;
35326;SDS011;21436;52.348;20.928;2022-12-18T04:39:20;41.63;;;12.95;;
35326;SDS011;21436;52.348;20.928;2022-12-18T04:41:50;29.60;;;10.90;;
35326;SDS011;21436;52.348;20.928;2022-12-18T04:44:17;37.60;;;12.32;;
35326;SDS011;21436;52.348;20.928;2022-12-18T04:46:45;249.90;;;91.97;;
35326;SDS011;21436;52.348;20.928;2022-12-18T04:49:13;115.38;;;45.95;;
35326;SDS011;21436;52.348;20.928;2022-12-18T04:51:40;62.53;;;24.10;;
35326;SDS011;21436;52.348;20.928;2022-12-18T04:54:08;40.80;;;17.02;;
35326;SDS011;21436;52.348;20.928;2022-12-18T04:56:35;42.15;;;16.38;;
35326;SDS011;21436;52.348;20.928;2022-12-18T04:59:02;39.30;;;14.30;;
35326;SDS011;21436;52.348;20.928;2022-12-18T05:01:30;32.58;;;11.15;;
35326;SDS011;21436;52.348;20.928;2022-12-18T05:04:02;100.00;;;41.97;;
35326;SDS011;21436;52.348;20.928;2022-12-18T05:06:30;114.65;;;45.30;;
35326;SDS011;21436;52.348;20.928;2022-12-18T05:08:58;71.13;;;26.35;;
35326;SDS011;21436;52.348;20.928;2022-12-18T05:11:25;37.90;;;13.25;;
35326;SDS011;21436;52.348;20.928;2022-12-18T05:13:53;32.60;;;12.82;;
35326;SDS011;21436;52.348;20.928;2022-12-18T05:16:20;39.00;;;12.40;;
35326;SDS011;21436;52.348;20.928;2022-12-18T05:18:48;34.40;;;12.73;;
35326;SDS011;21436;52.348;20.928;2022-12-18T05:21:15;35.42;;;11.55;;
35326;SDS011;21436;52.348;20.928;2022-12-18T05:23:43;35.85;;;11.77;;
35326;SDS011;21436;52.348;20.928;2022-12-18T05:26:14;96.03;;;31.90;;
35326;SDS011;21436;52.348;20.928;2022-12-18T05:28:43;119.15;;;37.30;;
35326;SDS011;21436;52.348;20.928;2022-12-18T05:31:11;95.22;;;30.88;;
35326;SDS011;21436;52.348;20.928;2022-12-18T05:33:39;65.93;;;25.17;;
35326;SDS011;21436;52.348;20.928;2022-12-18T05:36:07;74.88;;;24.83;;
35326;SDS011;21436;52.348;20.928;2022-12-18T05:38:36;33.67;;;13.40;;
35326;SDS011;21436;52.348;20.928;2022-12-18T05:41:05;177.30;;;61.08;;
35326;SDS011;21436;52.348;20.928;2022-12-18T05:43:33;249.93;;;76.85;;
35326;SDS011;21436;52.348;20.928;2022-12-18T05:46:07;523.20;;;175.90;;
35326;SDS011;21436;52.348;20.928;2022-12-18T05:48:36;277.73;;;92.95;;
35326;SDS011;21436;52.348;20.928;2022-12-18T05:51:04;78.90;;;29.45;;
35326;SDS011;21436;52.348;20.928;2022-12-18T05:53:33;53.70;;;19.70;;
35326;SDS011;21436;52.348;20.928;2022-12-18T05:56:03;71.38;;;24.02;;
35326;SDS011;21436;52.348;20.928;2022-12-18T05:58:32;71.35;;;25.27;;
35326;SDS011;21436;52.348;20.928;2022-12-18T06:01:21;86.40;;;29.42;;
35326;SDS011;21436;52.348;20.928;2022-12-18T06:03:50;100.20;;;34.42;;
35326;SDS011;21436;52.348;20.928;2022-12-18T06:08:47;76.65;;;28.13;;
35326;SDS011;21436;52.348;20.928;2022-12-18T06:11:16;83.93;;;27.70;;
35326;SDS011;21436;52.348;20.928;2022-12-18T06:13:51;101.50;;;33.42;;
35326;SDS011;21436;52.348;20.928;2022-12-18T06:16:26;105.57;;;34.35;;
35326;SDS011;21436;52.348;20.928;2022-12-18T06:19:00;38.92;;;13.55;;
35326;SDS011;21436;52.348;20.928;2022-12-18T06:21:30;50.72;;;17.85;;
35326;SDS011;21436;52.348;20.928;2022-12-18T06:23:59;38.63;;;15.77;;
35326;SDS011;21436;52.348;20.928;2022-12-18T06:26:27;79.55;;;24.52;;
35326;SDS011;21436;52.348;20.928;2022-12-18T06:28:55;92.55;;;26.67;;
35326;SDS011;21436;52.348;20.928;2022-12-18T06:31:23;62.58;;;19.25;;
35326;SDS011;21436;52.348;20.928;2022-12-18T06:33:51;145.38;;;43.22;;
35326;SDS011;21436;52.348;20.928;2022-12-18T06:36:19;76.13;;;24.25;;
35326;SDS011;21436;52.348;20.928;2022-12-18T06:38:47;106.70;;;30.50;;
35326;SDS011;21436;52.348;20.928;2022-12-18T06:41:16;75.93;;;20.35;;
35326;SDS011;21436;52.348;20.928;2022-12-18T06:43:45;148.60;;;42.97;;
35326;SDS011;21436;52.348;20.928;2022-12-18T06:46:13;88.68;;;26.52;;
35326;SDS011;21436;52.348;20.928;2022-12-18T06:48:41;95.60;;;26.30;;
35326;SDS011;21436;52.348;20.928;2022-12-18T06:51:08;116.47;;;29.98;;
35326;SDS011;21436;52.348;20.928;2022-12-18T06:53:36;168.38;;;45.45;;
35326;SDS011;21436;52.348;20.928;2022-12-18T06:56:05;86.18;;;24.77;;
35326;SDS011;21436;52.348;20.928;2022-12-18T06:58:37;181.57;;;46.65;;
35326;SDS011;21436;52.348;20.928;2022-12-18T07:01:06;146.50;;;36.42;;
35326;SDS011;21436;52.348;20.928;2022-12-18T07:03:35;158.40;;;38.88;;
35326;SDS011;21436;52.348;20.928;2022-12-18T07:06:04;173.10;;;41.72;;
35326;SDS011;21436;52.348;20.928;2022-12-18T07:08:31;128.27;;;32.80;;
35326;SDS011;21436;52.348;20.928;2022-12-18T07:11:02;126.35;;;33.15;;
35326;SDS011;21436;52.348;20.928;2022-12-18T07:13:30;82.80;;;26.23;;
35326;SDS011;21436;52.348;20.928;2022-12-18T07:16:05;107.97;;;28.20;;
35326;SDS011;21436;52.348;20.928;2022-12-18T07:18:46;101.75;;;29.05;;
35326;SDS011;21436;52.348;20.928;2022-12-18T07:21:15;101.95;;;27.67;;
35326;SDS011;21436;52.348;20.928;2022-12-18T07:23:44;97.75;;;28.00;;
35326;SDS011;21436;52.348;20.928;2022-12-18T07:26:16;103.35;;;27.73;;
35326;SDS011;21436;52.348;20.928;2022-12-18T07:28:44;104.13;;;29.05;;
35326;SDS011;21436;52.348;20.928;2022-12-18T07:31:21;102.35;;;28.67;;
35326;SDS011;21436;52.348;20.928;2022-12-18T07:33:49;108.82;;;26.90;;
35326;SDS011;21436;52.348;20.928;2022-12-18T07:36:18;111.10;;;26.85;;
35326;SDS011;21436;52.348;20.928;2022-12-18T07:38:46;115.97;;;29.23;;
35326;SDS011;21436;52.348;20.928;2022-12-18T07:41:15;103.95;;;29.17;;
35326;SDS011;21436;52.348;20.928;2022-12-18T07:43:45;106.40;;;27.65;;
35326;SDS011;21436;52.348;20.928;2022-12-18T07:46:13;109.50;;;29.52;;
35326;SDS011;21436;52.348;20.928;2022-12-18T07:48:42;117.13;;;27.98;;
35326;SDS011;21436;52.348;20.928;2022-12-18T07:51:14;108.57;;;29.65;;
35326;SDS011;21436;52.348;20.928;2022-12-18T07:53:42;100.70;;;26.15;;
35326;SDS011;21436;52.348;20.928;2022-12-18T07:56:11;90.40;;;26.58;;
35326;SDS011;21436;52.348;20.928;2022-12-18T07:58:56;100.13;;;26.55;;
35326;SDS011;21436;52.348;20.928;2022-12-18T08:01:24;83.25;;;24.02;;
35326;SDS011;21436;52.348;20.928;2022-12-18T08:03:52;89.57;;;27.60;;
35326;SDS011;21436;52.348;20.928;2022-12-18T08:06:20;96.43;;;26.92;;
35326;SDS011;21436;52.348;20.928;2022-12-18T08:08:50;103.55;;;25.58;;
35326;SDS011;21436;52.348;20.928;2022-12-18T08:11:22;91.57;;;25.08;;
35326;SDS011;21436;52.348;20.928;2022-12-18T08:13:52;97.45;;;26.42;;
35326;SDS011;21436;52.348;20.928;2022-12-18T08:16:20;128.70;;;34.10;;
35326;SDS011;21436;52.348;20.928;2022-12-18T08:18:48;94.55;;;25.75;;
35326;SDS011;21436;52.348;20.928;2022-12-18T08:21:21;94.38;;;28.23;;
35326;SDS011;21436;52.348;20.928;2022-12-18T08:23:51;118.25;;;29.90;;
35326;SDS011;21436;52.348;20.928;2022-12-18T08:26:20;100.68;;;26.48;;
35326;SDS011;21436;52.348;20.928;2022-12-18T08:28:48;97.32;;;28.08;;
35326;SDS011;21436;52.348;20.928;2022-12-18T08:31:17;113.80;;;28.45;;
35326;SDS011;21436;52.348;20.928;2022-12-18T08:33:50;93.22;;;27.60;;
35326;SDS011;21436;52.348;20.928;2022-12-18T08:36:20;88.18;;;27.80;;
35326;SDS011;21436;52.348;20.928;2022-12-18T08:38:47;101.68;;;29.17;;
35326;SDS011;21436;52.348;20.928;2022-12-18T08:41:16;92.40;;;30.88;;
35326;SDS011;21436;52.348;20.928;2022-12-18T08:43:44;114.72;;;35.72;;
35326;SDS011;21436;52.348;20.928;2022-12-18T08:46:32;114.38;;;34.25;;
35326;SDS011;21436;52.348;20.928;2022-12-18T08:49:04;94.10;;;29.30;;
35326;SDS011;21436;52.348;20.928;2022-12-18T08:51:32;101.57;;;29.40;;
35326;SDS011;21436;52.348;20.928;2022-12-18T08:54:00;98.18;;;29.15;;
35326;SDS011;21436;52.348;20.928;2022-12-18T08:56:29;97.53;;;29.27;;
35326;SDS011;21436;52.348;20.928;2022-12-18T08:58:57;83.50;;;27.30;;
35326;SDS011;21436;52.348;20.928;2022-12-18T09:01:25;88.18;;;26.15;;
35326;SDS011;21436;52.348;20.928;2022-12-18T09:03:52;100.25;;;28.23;;
35326;SDS011;21436;52.348;20.928;2022-12-18T09:06:21;93.55;;;29.88;;
35326;SDS011;21436;52.348;20.928;2022-12-18T09:08:49;77.53;;;24.92;;
35326;SDS011;21436;52.348;20.928;2022-12-18T09:11:21;87.00;;;25.65;;
35326;SDS011;21436;52.348;20.928;2022-12-18T09:13:49;81.18;;;24.73;;
35326;SDS011;21436;52.348;20.928;2022-12-18T09:16:17;77.70;;;23.23;;
35326;SDS011;21436;52.348;20.928;2022-12-18T09:18:46;88.25;;;24.52;;
35326;SDS011;21436;52.348;20.928;2022-12-18T09:21:15;89.63;;;26.48;;
35326;SDS011;21436;52.348;20.928;2022-12-18T09:23:54;69.93;;;22.45;;
35326;SDS011;21436;52.348;20.928;2022-12-18T09:26:23;63.80;;;20.70;;
35326;SDS011;21436;52.348;20.928;2022-12-18T09:28:51;88.78;;;24.60;;
35326;SDS011;21436;52.348;20.928;2022-12-18T09:31:20;78.57;;;24.70;;
35326;SDS011;21436;52.348;20.928;2022-12-18T09:33:49;190.73;;;58.88;;
35326;SDS011;21436;52.348;20.928;2022-12-18T09:36:17;124.85;;;39.13;;
35326;SDS011;21436;52.348;20.928;2022-12-18T09:38:45;74.25;;;23.13;;
35326;SDS011;21436;52.348;20.928;2022-12-18T09:44:05;86.53;;;28.92;;
35326;SDS011;21436;52.348;20.928;2022-12-18T09:46:42;101.35;;;35.03;;
35326;SDS011;21436;52.348;20.928;2022-12-18T09:49:12;72.05;;;22.25;;
35326;SDS011;21436;52.348;20.928;2022-12-18T09:51:52;79.13;;;24.85;;
35326;SDS011;21436;52.348;20.928;2022-12-18T09:57:22;81.70;;;24.05;;
35326;SDS011;21436;52.348;20.928;2022-12-18T10:00:34;93.85;;;31.95;;
35326;SDS011;21436;52.348;20.928;2022-12-18T10:02:44;133.32;;;46.60;;
35326;SDS011;21436;52.348;20.928;2022-12-18T10:05:13;69.90;;;24.80;;
35326;SDS011;21436;52.348;20.928;2022-12-18T10:16:17;72.15;;;21.20;;
35326;SDS011;21436;52.348;20.928;2022-12-18T10:25:00;66.72;;;22.33;;
35326;SDS011;21436;52.348;20.928;2022-12-18T10:27:32;70.85;;;25.38;;
35326;SDS011;21436;52.348;20.928;2022-12-18T10:30:00;76.97;;;26.55;;
35326;SDS011;21436;52.348;20.928;2022-12-18T10:32:28;71.57;;;25.70;;
35326;SDS011;21436;52.348;20.928;2022-12-18T10:34:57;71.50;;;24.95;;
35326;SDS011;21436;52.348;20.928;2022-12-18T10:37:27;72.97;;;25.88;;
35326;SDS011;21436;52.348;20.928;2022-12-18T10:43:02;71.78;;;26.20;;
35326;SDS011;21436;52.348;20.928;2022-12-18T10:45:41;115.88;;;41.25;;
35326;SDS011;21436;52.348;20.928;2022-12-18T10:48:21;110.70;;;41.58;;
35326;SDS011;21436;52.348;20.928;2022-12-18T10:50:50;74.18;;;27.80;;
35326;SDS011;21436;52.348;20.928;2022-12-18T10:53:39;69.53;;;24.38;;
35326;SDS011;21436;52.348;20.928;2022-12-18T10:56:07;64.97;;;22.85;;
35326;SDS011;21436;52.348;20.928;2022-12-18T10:58:36;79.22;;;28.77;;
35326;SDS011;21436;52.348;20.928;2022-12-18T11:03:35;67.18;;;22.60;;
35326;SDS011;21436;52.348;20.928;2022-12-18T11:06:08;61.80;;;22.83;;
35326;SDS011;21436;52.348;20.928;2022-12-18T11:08:40;72.50;;;27.67;;
35326;SDS011;21436;52.348;20.928;2022-12-18T11:11:22;93.93;;;30.98;;
35326;SDS011;21436;52.348;20.928;2022-12-18T11:16:46;65.15;;;21.80;;
35326;SDS011;21436;52.348;20.928;2022-12-18T11:19:34;64.53;;;22.20;;
35326;SDS011;21436;52.348;20.928;2022-12-18T11:22:17;65.10;;;23.02;;
35326;SDS011;21436;52.348;20.928;2022-12-18T11:24:55;62.70;;;22.85;;
35326;SDS011;21436;52.348;20.928;2022-12-18T11:27:52;55.40;;;20.65;;
35326;SDS011;21436;52.348;20.928;2022-12-18T11:32:59;70.63;;;20.58;;
35326;SDS011;21436;52.348;20.928;2022-12-18T11:38:23;75.65;;;23.08;;
35326;SDS011;21436;52.348;20.928;2022-12-18T11:47:21;69.47;;;23.33;;
35326;SDS011;21436;52.348;20.928;2022-12-18T11:49:59;74.15;;;25.95;;
35326;SDS011;21436;52.348;20.928;2022-12-18T11:52:37;67.72;;;23.35;;
35326;SDS011;21436;52.348;20.928;2022-12-18T11:55:11;72.50;;;24.83;;
35326;SDS011;21436;52.348;20.928;2022-12-18T12:14:55;71.05;;;30.95;;
35326;SDS011;21436;52.348;20.928;2022-12-18T12:17:45;69.18;;;24.98;;
35326;SDS011;21436;52.348;20.928;2022-12-18T12:28:32;76.38;;;26.73;;
35326;SDS011;21436;52.348;20.928;2022-12-18T12:39:47;76.63;;;28.00;;
35326;SDS011;21436;52.348;20.928;2022-12-18T12:42:19;80.43;;;28.63;;
35326;SDS011;21436;52.348;20.928;2022-12-18T12:45:15;86.32;;;29.02;;
35326;SDS011;21436;52.348;20.928;2022-12-18T12:47:45;87.82;;;28.63;;
35326;SDS011;21436;52.348;20.928;2022-12-18T12:50:15;79.43;;;27.77;;
35326;SDS011;21436;52.348;20.928;2022-12-18T12:52:49;95.00;;;29.10;;
35326;SDS011;21436;52.348;20.928;2022-12-18T12:55:21;84.63;;;28.08;;
35326;SDS011;21436;52.348;20.928;2022-12-18T12:57:54;94.85;;;29.95;;
35326;SDS011;21436;52.348;20.928;2022-12-18T13:01:04;90.10;;;29.83;;
35326;SDS011;21436;52.348;20.928;2022-12-18T13:03:57;83.60;;;29.05;;
35326;SDS011;21436;52.348;20.928;2022-12-18T13:09:21;85.53;;;27.63;;
35326;SDS011;21436;52.348;20.928;2022-12-18T13:11:49;90.18;;;28.42;;
35326;SDS011;21436;52.348;20.928;2022-12-18T13:14:36;76.88;;;26.77;;
35326;SDS011;21436;52.348;20.928;2022-12-18T13:20:09;83.47;;;26.48;;
35326;SDS011;21436;52.348;20.928;2022-12-18T13:22:46;84.13;;;29.38;;
35326;SDS011;21436;52.348;20.928;2022-12-18T13:30:41;97.75;;;30.65;;
35326;SDS011;21436;52.348;20.928;2022-12-18T13:41:00;79.57;;;26.75;;
35326;SDS011;21436;52.348;20.928;2022-12-18T13:43:40;88.50;;;27.95;;
35326;SDS011;21436;52.348;20.928;2022-12-18T13:49:00;75.97;;;27.33;;
35326;SDS011;21436;52.348;20.928;2022-12-18T13:51:31;95.82;;;29.17;;
35326;SDS011;21436;52.348;20.928;2022-12-18T13:54:01;81.53;;;26.90;;
35326;SDS011;21436;52.348;20.928;2022-12-18T13:56:31;99.07;;;28.25;;
35326;SDS011;21436;52.348;20.928;2022-12-18T13:59:20;75.07;;;26.77;;
35326;SDS011;21436;52.348;20.928;2022-12-18T14:01:58;81.45;;;27.52;;
35326;SDS011;21436;52.348;20.928;2022-12-18T14:04:34;92.60;;;29.42;;
35326;SDS011;21436;52.348;20.928;2022-12-18T14:07:05;88.13;;;26.58;;
35326;SDS011;21436;52.348;20.928;2022-12-18T14:09:37;77.95;;;25.20;;
35326;SDS011;21436;52.348;20.928;2022-12-18T14:12:14;101.47;;;31.98;;
35326;SDS011;21436;52.348;20.928;2022-12-18T14:15:02;89.15;;;27.92;;
35326;SDS011;21436;52.348;20.928;2022-12-18T14:17:32;83.00;;;25.48;;
35326;SDS011;21436;52.348;20.928;2022-12-18T14:20:00;82.63;;;25.35;;
35326;SDS011;21436;52.348;20.928;2022-12-18T14:22:28;88.65;;;27.10;;
35326;SDS011;21436;52.348;20.928;2022-12-18T14:25:10;92.78;;;26.50;;
35326;SDS011;21436;52.348;20.928;2022-12-18T14:27:42;82.22;;;26.27;;
35326;SDS011;21436;52.348;20.928;2022-12-18T14:30:35;85.53;;;26.38;;
35326;SDS011;21436;52.348;20.928;2022-12-18T14:33:20;93.00;;;26.75;;
35326;SDS011;21436;52.348;20.928;2022-12-18T14:38:39;99.70;;;28.17;;
35326;SDS011;21436;52.348;20.928;2022-12-18T14:41:12;81.63;;;25.42;;
35326;SDS011;21436;52.348;20.928;2022-12-18T14:49:00;87.45;;;25.17;;
35326;SDS011;21436;52.348;20.928;2022-12-18T14:51:50;91.00;;;25.48;;
35326;SDS011;21436;52.348;20.928;2022-12-18T14:54:20;85.25;;;24.65;;
35326;SDS011;21436;52.348;20.928;2022-12-18T14:56:49;85.78;;;25.40;;
35326;SDS011;21436;52.348;20.928;2022-12-18T14:59:20;92.30;;;27.95;;
35326;SDS011;21436;52.348;20.928;2022-12-18T15:04:38;89.70;;;28.10;;
35326;SDS011;21436;52.348;20.928;2022-12-18T15:09:39;89.55;;;26.83;;
35326;SDS011;21436;52.348;20.928;2022-12-18T15:15:02;86.60;;;26.20;;
35326;SDS011;21436;52.348;20.928;2022-12-18T15:17:30;94.80;;;28.85;;
35326;SDS011;21436;52.348;20.928;2022-12-18T15:20:02;98.07;;;28.73;;
35326;SDS011;21436;52.348;20.928;2022-12-18T15:22:37;93.22;;;28.15;;
35326;SDS011;21436;52.348;20.928;2022-12-18T15:25:20;101.30;;;28.45;;
35326;SDS011;21436;52.348;20.928;2022-12-18T15:27:53;91.30;;;29.13;;
35326;SDS011;21436;52.348;20.928;2022-12-18T15:30:21;97.63;;;29.30;;
35326;SDS011;21436;52.348;20.928;2022-12-18T15:32:50;85.88;;;26.35;;
35326;SDS011;21436;52.348;20.928;2022-12-18T15:35:21;104.78;;;28.48;;
35326;SDS011;21436;52.348;20.928;2022-12-18T15:37:50;98.22;;;29.35;;
35326;SDS011;21436;52.348;20.928;2022-12-18T15:40:20;77.97;;;24.33;;
35326;SDS011;21436;52.348;20.928;2022-12-18T15:42:51;84.65;;;26.27;;
35326;SDS011;21436;52.348;20.928;2022-12-18T15:45:39;89.45;;;26.92;;
35326;SDS011;21436;52.348;20.928;2022-12-18T15:48:23;82.38;;;23.70;;
35326;SDS011;21436;52.348;20.928;2022-12-18T15:50:50;83.38;;;25.05;;
35326;SDS011;21436;52.348;20.928;2022-12-18T15:53:19;85.45;;;26.30;;
35326;SDS011;21436;52.348;20.928;2022-12-18T15:55:47;78.97;;;23.48;;
35326;SDS011;21436;52.348;20.928;2022-12-18T15:58:34;74.85;;;23.60;;
35326;SDS011;21436;52.348;20.928;2022-12-18T16:01:01;81.03;;;25.90;;
35326;SDS011;21436;52.348;20.928;2022-12-18T16:03:30;79.63;;;24.60;;
35326;SDS011;21436;52.348;20.928;2022-12-18T16:05:58;85.10;;;26.73;;
35326;SDS011;21436;52.348;20.928;2022-12-18T16:08:30;59.88;;;19.20;;
35326;SDS011;21436;52.348;20.928;2022-12-18T16:10:58;93.72;;;29.13;;
35326;SDS011;21436;52.348;20.928;2022-12-18T16:13:26;84.82;;;26.88;;
35326;SDS011;21436;52.348;20.928;2022-12-18T16:15:53;78.72;;;26.05;;
35326;SDS011;21436;52.348;20.928;2022-12-18T16:18:21;83.30;;;25.75;;
35326;SDS011;21436;52.348;20.928;2022-12-18T16:20:49;81.75;;;26.30;;
35326;SDS011;21436;52.348;20.928;2022-12-18T16:23:17;80.45;;;25.58;;
35326;SDS011;21436;52.348;20.928;2022-12-18T16:25:44;90.13;;;27.02;;
35326;SDS011;21436;52.348;20.928;2022-12-18T16:28:12;92.38;;;28.17;;
35326;SDS011;21436;52.348;20.928;2022-12-18T16:30:39;83.93;;;28.58;;
35326;SDS011;21436;52.348;20.928;2022-12-18T16:33:08;88.07;;;29.30;;
35326;SDS011;21436;52.348;20.928;2022-12-18T16:35:37;92.93;;;32.03;;
35326;SDS011;21436;52.348;20.928;2022-12-18T16:38:05;86.60;;;31.58;;
35326;SDS011;21436;52.348;20.928;2022-12-18T16:40:32;84.95;;;27.55;;
35326;SDS011;21436;52.348;20.928;2022-12-18T16:43:00;98.22;;;28.88;;
35326;SDS011;21436;52.348;20.928;2022-12-18T16:45:27;113.15;;;36.28;;
35326;SDS011;21436;52.348;20.928;2022-12-18T16:48:00;111.35;;;40.05;;
35326;SDS011;21436;52.348;20.928;2022-12-18T16:50:27;82.60;;;27.40;;
35326;SDS011;21436;52.348;20.928;2022-12-18T16:52:55;96.68;;;28.77;;